| Date | Time | Temp. (oF) | Dew Point (oF) | Rel. Hum. (%) | Press. (in.) | Wind Dir. | Wind Speed (mph) | Hourly Rainfall (in.) |
|
|---|---|---|---|---|---|---|---|---|---|
| 1 | 02/20 | 00:00 | 39 | 27 | 63 | 30.20 | SSW | 7 | 0.00 |
| 2 | 02/19 | 23:00 | 37 | 26 | 65 | 30.21 | S | 4 | 0.00 |
| 3 | 02/19 | 22:00 | 38 | 26 | 63 | 30.21 | S | 4 | 0.00 |
| 4 | 02/19 | 21:00 | 38 | 25 | 61 | 30.21 | S | 10 | 0.00 |
| 5 | 02/19 | 20:00 | 38 | 25 | 61 | 30.22 | SSE | 7 | 0.00 |
| 6 | 02/19 | 19:00 | 39 | 25 | 58 | 30.22 | SSE | 7 | 0.00 |
| 7 | 02/19 | 18:00 | 41 | 23 | 50 | 30.22 | SSE | 6 | 0.00 |
| 8 | 02/19 | 17:00 | 42 | 22 | 46 | 30.23 | S | 9 | 0.00 |
| 9 | 02/19 | 16:00 | 43 | 21 | 43 | 30.22 | SSE | 10 | 0.00 |
| 10 | 02/19 | 15:00 | 44 | 19 | 38 | 30.23 | S | 16 | 0.00 |
| 11 | 02/19 | 14:00 | 43 | 18 | 38 | 30.27 | S | 17 | 0.00 |
| 12 | 02/19 | 13:00 | 40 | 16 | 39 | 30.33 | S | 10 | 0.00 |
| 13 | 02/19 | 12:00 | 38 | 15 | 40 | 30.37 | S | 10 | 0.00 |
| 14 | 02/19 | 11:00 | 36 | 16 | 44 | 30.41 | SSW | 6 | 0.00 |
| 15 | 02/19 | 10:00 | 33 | 15 | 48 | 30.43 | S | 7 | 0.00 |
| 16 | 02/19 | 09:00 | 30 | 15 | 55 | 30.46 | SW | 5 | 0.00 |
| 17 | 02/19 | 08:00 | 22 | 15 | 75 | 30.47 | S | 2 | 0.00 |
| 18 | 02/19 | 07:00 | 22 | 13 | 69 | 30.47 | S | 0 | 0.00 |
| 19 | 02/19 | 06:00 | 21 | 12 | 70 | 30.48 | S | 4 | 0.00 |
| 20 | 02/19 | 05:00 | 20 | 15 | 81 | 30.47 | SSW | 2 | 0.00 |
| 21 | 02/19 | 04:00 | 21 | 13 | 72 | 30.46 | SW | 3 | 0.00 |
| 22 | 02/19 | 03:00 | 21 | 14 | 76 | 30.46 | SSW | 2 | 0.00 |
| 23 | 02/19 | 02:00 | 21 | 14 | 77 | 30.46 | SSW | 0 | 0.00 |
| 24 | 02/19 | 01:00 | 22 | 14 | 74 | 30.46 | SSW | 1 | 0.00 |